createdAt,value
2019-03-28T00:01:41.031Z,24.83
2019-03-28T00:06:50.271Z,22.63
2019-03-28T00:12:01.608Z,21.90
2019-03-28T00:17:09.437Z,20.20
2019-03-28T00:22:28.389Z,25.43
2019-03-28T00:27:36.869Z,19.37
2019-03-28T00:32:45.180Z,19.53
2019-03-28T00:37:53.330Z,30.80
2019-03-28T00:43:07.892Z,30.87
2019-03-28T00:48:12.873Z,25.70
2019-03-28T00:53:20.994Z,20.80
2019-03-28T00:58:31.605Z,20.67
2019-03-28T01:03:39.022Z,23.13
2019-03-28T01:08:46.920Z,24.80
2019-03-28T01:13:54.971Z,26.27
2019-03-28T01:19:06.640Z,27.47
2019-03-28T01:24:15.154Z,23.40
2019-03-28T01:29:23.998Z,25.73
2019-03-28T01:34:33.777Z,27.87
2019-03-28T01:39:41.473Z,29.17
2019-03-28T01:44:50.056Z,28.40
2019-03-28T01:50:00.654Z,30.23
2019-03-28T01:55:09.866Z,32.27
2019-03-28T02:00:18.668Z,30.03
2019-03-28T02:05:30.523Z,34.97
2019-03-28T02:10:39.616Z,30.07
2019-03-28T02:15:47.711Z,31.00
2019-03-28T02:20:57.589Z,31.67
2019-03-28T02:26:07.866Z,30.33
2019-03-28T02:31:16.702Z,35.57
2019-03-28T02:36:25.155Z,28.80
2019-03-28T02:41:42.163Z,26.60
2019-03-28T02:46:56.239Z,33.30
2019-03-28T02:52:02.866Z,22.20
2019-03-28T02:57:10.458Z,28.87
2019-03-28T03:02:18.508Z,25.63
2019-03-28T03:07:26.952Z,24.93
2019-03-28T03:12:34.615Z,23.50
2019-03-28T03:17:42.845Z,25.50
2019-03-28T03:22:51.173Z,23.50
2019-03-28T03:27:59.921Z,20.30
2019-03-28T03:33:10.993Z,17.10
2019-03-28T03:38:21.645Z,19.60
2019-03-28T03:43:29.516Z,15.57
2019-03-28T03:48:38.785Z,15.00
2019-03-28T03:53:46.786Z,17.73
2019-03-28T03:58:54.364Z,17.63
2019-03-28T04:04:05.379Z,15.43
2019-03-28T04:09:13.460Z,27.43
2019-03-28T04:14:21.070Z,25.60
2019-03-28T04:19:32.054Z,19.43
2019-03-28T04:24:42.991Z,19.30
2019-03-28T04:29:52.052Z,24.87
2019-03-28T04:34:59.933Z,27.73
2019-03-28T04:40:11.601Z,30.57
2019-03-28T04:45:19.236Z,22.30
2019-03-28T04:50:27.215Z,20.63
2019-03-28T04:55:35.528Z,19.40
2019-03-28T05:00:43.432Z,19.80
2019-03-28T05:05:51.487Z,16.07
2019-03-28T05:11:01.124Z,15.83
2019-03-28T05:16:10.193Z,15.87
2019-03-28T05:21:18.278Z,14.80
2019-03-28T05:26:26.085Z,14.90
2019-03-28T05:31:34.401Z,12.70
2019-03-28T05:36:43.047Z,26.90
2019-03-28T05:41:51.132Z,22.70
2019-03-28T05:46:58.917Z,11.40
2019-03-28T05:52:11.749Z,11.77
2019-03-28T05:57:18.944Z,13.57
2019-03-28T06:02:26.661Z,13.80
2019-03-28T06:07:34.630Z,17.50
2019-03-28T06:12:42.758Z,16.70
2019-03-28T06:17:50.682Z,10.47
2019-03-28T06:22:58.881Z,11.17
2019-03-28T06:28:11.274Z,9.27
2019-03-28T06:33:20.112Z,8.47
2019-03-28T06:38:28.487Z,10.53
2019-03-28T06:43:36.607Z,10.00
2019-03-28T06:48:44.349Z,12.13
2019-03-28T06:53:57.063Z,12.30
2019-03-28T06:59:06.103Z,8.73
2019-03-28T07:04:18.356Z,11.67
2019-03-28T07:09:28.558Z,12.60
2019-03-28T07:14:36.714Z,11.27
2019-03-28T07:19:44.882Z,10.07
2019-03-28T07:24:53.241Z,13.23
2019-03-28T07:30:01.497Z,11.77
2019-03-28T07:35:13.845Z,16.40
2019-03-28T07:40:22.835Z,14.60
2019-03-28T07:45:34.188Z,15.20
2019-03-28T07:50:42.521Z,15.47
2019-03-28T07:55:54.884Z,12.80
2019-03-28T08:01:05.960Z,14.07
2019-03-28T08:06:20.662Z,14.00
2019-03-28T08:11:35.567Z,12.73
2019-03-28T08:16:44.356Z,12.73
2019-03-28T08:21:54.066Z,10.47
2019-03-28T08:27:07.007Z,13.27
2019-03-28T08:32:17.770Z,11.60
2019-03-28T08:37:28.086Z,14.80
2019-03-28T08:42:36.159Z,11.33
2019-03-28T08:47:46.966Z,10.77
2019-03-28T08:52:55.070Z,11.43
2019-03-28T08:58:05.038Z,9.43
2019-03-28T09:03:12.912Z,8.13
2019-03-28T09:08:24.239Z,9.20
2019-03-28T09:13:32.370Z,9.37
2019-03-28T09:18:40.793Z,8.43
2019-03-28T09:23:48.866Z,10.03
2019-03-28T09:28:56.842Z,12.60
2019-03-28T09:34:04.665Z,14.53
2019-03-28T09:39:13.734Z,10.20
2019-03-28T09:44:22.225Z,10.83
2019-03-28T09:49:33.938Z,12.50
2019-03-28T09:54:49.247Z,11.00
2019-03-28T10:00:03.484Z,9.07
2019-03-28T10:05:15.543Z,12.03
2019-03-28T10:10:31.612Z,12.47
2019-03-28T10:15:43.889Z,13.90
2019-03-28T10:20:56.473Z,11.27
2019-03-28T10:26:09.112Z,13.00
2019-03-28T10:31:19.592Z,12.00
2019-03-28T10:36:27.935Z,13.50
2019-03-28T10:41:39.859Z,12.93
2019-03-28T10:46:49.174Z,11.83
2019-03-28T10:52:03.959Z,11.90
2019-03-28T10:57:15.275Z,12.30
2019-03-28T11:02:22.036Z,9.83
2019-03-28T11:07:31.391Z,11.33
2019-03-28T11:12:39.412Z,11.90
2019-03-28T11:17:47.808Z,11.80
2019-03-28T11:22:56.000Z,12.50
2019-03-28T11:34:03.703Z,14.80
2019-03-28T11:39:12.252Z,14.63
2019-03-28T11:44:23.357Z,10.37
2019-03-28T11:49:32.036Z,10.57
2019-03-28T12:11:59.226Z,9.47
2019-03-28T12:17:07.774Z,11.70
2019-03-28T12:28:50.866Z,11.27
2019-03-28T12:33:59.612Z,11.00
2019-03-28T12:39:15.455Z,11.60
2019-03-28T12:44:24.861Z,11.97
2019-03-28T12:49:33.186Z,10.07
2019-03-28T12:54:44.077Z,10.50
2019-03-28T12:59:53.447Z,13.50
2019-03-28T13:05:03.132Z,12.30
2019-03-28T13:10:12.083Z,16.20
2019-03-28T13:15:20.214Z,12.23
2019-03-28T13:20:30.745Z,18.77
2019-03-28T13:31:00.428Z,17.40
2019-03-28T13:36:09.285Z,15.17
2019-03-28T13:41:17.536Z,14.50
2019-03-28T13:46:26.827Z,17.07
2019-03-28T13:51:34.348Z,17.33
2019-03-28T13:56:41.837Z,21.77
2019-03-28T14:01:53.781Z,19.73
2019-03-28T14:07:03.732Z,18.00
2019-03-28T14:12:11.755Z,19.93
2019-03-28T14:17:21.839Z,15.60
2019-03-28T14:22:29.655Z,15.33
2019-03-28T14:27:37.780Z,14.40
2019-03-28T15:07:09.857Z,28.50
2019-03-28T15:12:17.913Z,33.77
2019-03-28T15:17:26.069Z,24.43
2019-03-28T15:22:34.178Z,22.00
2019-03-28T15:27:42.249Z,18.80
2019-03-28T15:32:57.332Z,21.80
2019-03-28T15:38:10.484Z,20.20
2019-03-28T15:43:24.429Z,25.80
2019-03-28T15:48:40.921Z,20.00
2019-03-28T15:53:50.949Z,19.90
2019-03-28T15:58:58.925Z,21.60
2019-03-28T16:04:09.577Z,21.90
2019-03-28T16:09:21.617Z,28.67
2019-03-28T16:14:32.969Z,18.43
2019-03-28T16:19:41.200Z,20.80
2019-03-28T16:24:48.820Z,19.67
2019-03-28T16:29:57.004Z,21.60
2019-03-28T16:35:06.983Z,23.67
2019-03-28T16:40:14.924Z,17.73
2019-03-28T16:45:24.225Z,18.07
2019-03-28T16:50:32.453Z,19.63
2019-03-28T16:55:43.481Z,17.27
2019-03-28T17:00:59.122Z,18.03
2019-03-28T17:06:08.438Z,17.87
2019-03-28T17:11:17.971Z,16.47
2019-03-28T17:16:26.797Z,16.13
2019-03-28T17:21:34.929Z,20.10
2019-03-28T17:26:42.661Z,22.47
2019-03-28T17:31:54.154Z,26.30
2019-03-28T17:37:03.865Z,22.30
2019-03-28T17:42:11.440Z,23.57
2019-03-28T17:47:19.299Z,27.30
2019-03-28T17:52:28.688Z,28.17
2019-03-28T17:57:40.064Z,32.90
2019-03-28T18:02:49.590Z,30.17
2019-03-28T18:52:51.639Z,22.00
2019-03-28T18:58:00.881Z,26.17
2019-03-28T19:03:12.356Z,24.10
2019-03-28T19:08:21.688Z,24.23
2019-03-28T19:13:31.247Z,24.93
2019-03-28T19:18:40.529Z,28.30
2019-03-28T19:23:49.105Z,28.87
2019-03-28T19:29:05.040Z,23.50
2019-03-28T19:34:15.454Z,23.97
2019-03-28T19:39:32.232Z,24.10
2019-03-28T19:44:45.270Z,21.90
2019-03-28T19:49:55.353Z,23.90
2019-03-28T19:55:14.346Z,28.67
2019-03-28T20:00:27.384Z,22.73
2019-03-28T20:05:47.357Z,23.63
2019-03-28T20:10:51.179Z,24.60
2019-03-28T20:15:59.817Z,22.40
2019-03-28T20:21:14.988Z,26.10
2019-03-28T20:26:27.911Z,31.27
2019-03-28T20:31:36.784Z,23.40
2019-03-28T20:36:48.367Z,20.73
2019-03-28T20:41:56.862Z,27.10
2019-03-28T20:47:08.002Z,25.63
2019-03-28T20:52:15.919Z,27.00
2019-03-28T20:57:29.391Z,28.37
2019-03-28T21:02:37.709Z,22.10
2019-03-28T21:07:45.508Z,24.70
2019-03-28T21:12:56.785Z,19.30
2019-03-28T21:18:08.087Z,19.17
2019-03-28T21:23:18.979Z,22.90
2019-03-28T21:28:27.037Z,24.17
2019-03-28T21:33:37.178Z,24.37
2019-03-28T21:38:44.867Z,27.97
2019-03-28T21:43:52.839Z,24.90
2019-03-28T21:49:00.907Z,26.93
2019-03-28T21:54:08.859Z,21.43
2019-03-28T21:59:21.040Z,22.43
2019-03-28T22:04:29.559Z,24.23
2019-03-28T22:09:39.689Z,25.40
2019-03-28T22:14:48.306Z,24.07
2019-03-28T22:19:57.310Z,22.00
2019-03-28T22:25:06.811Z,24.77
2019-03-28T22:30:15.678Z,24.53
2019-03-28T22:35:27.220Z,25.30
2019-03-28T22:40:35.216Z,28.80
2019-03-28T22:45:43.898Z,23.27
2019-03-28T22:50:52.076Z,22.33
2019-03-28T22:55:59.780Z,23.33
2019-03-28T23:01:10.257Z,26.53
2019-03-28T23:06:19.351Z,26.40
2019-03-28T23:11:29.965Z,28.10
2019-03-28T23:16:38.256Z,25.50
2019-03-28T23:21:45.945Z,23.47
2019-03-28T23:26:53.658Z,22.57
2019-03-28T23:32:04.155Z,19.87
2019-03-28T23:37:24.238Z,26.37
2019-03-28T23:42:22.840Z,22.67
2019-03-28T23:47:32.692Z,19.80
2019-03-28T23:52:40.360Z,24.53
2019-03-28T23:57:48.625Z,24.23
